createdAt,value
2023-11-30T00:00:10.883Z,15.80
2023-11-30T00:02:37.207Z,15.85
2023-11-30T00:05:07.915Z,16.40
2023-11-30T00:07:34.584Z,15.88
2023-11-30T00:10:00.857Z,15.13
2023-11-30T00:12:27.138Z,15.48
2023-11-30T00:14:53.482Z,15.23
2023-11-30T00:17:19.850Z,15.30
2023-11-30T00:19:46.138Z,16.48
2023-11-30T00:22:12.432Z,15.93
2023-11-30T00:24:38.701Z,17.20
2023-11-30T00:27:05.297Z,16.35
2023-11-30T00:29:31.621Z,17.05
2023-11-30T00:31:57.867Z,17.00
2023-11-30T00:34:24.125Z,17.67
2023-11-30T00:36:50.984Z,18.15
2023-11-30T00:39:17.371Z,16.55
2023-11-30T00:41:43.916Z,15.77
2023-11-30T00:44:10.307Z,15.70
2023-11-30T00:46:36.711Z,15.60
2023-11-30T00:49:03.147Z,17.52
2023-11-30T01:18:54.908Z,15.55
2023-11-30T01:21:21.249Z,16.60
2023-11-30T01:23:47.566Z,16.23
2023-11-30T01:26:13.889Z,16.48
2023-11-30T01:28:40.273Z,15.43
2023-11-30T01:31:07.967Z,16.67
2023-11-30T01:33:34.404Z,15.95
2023-11-30T01:36:00.882Z,15.57
2023-11-30T01:38:27.216Z,15.35
2023-11-30T01:40:53.483Z,15.88
2023-11-30T01:43:21.959Z,16.10
2023-11-30T01:45:50.290Z,15.65
2023-11-30T01:48:18.597Z,15.13
2023-11-30T01:50:45.758Z,15.63
2023-11-30T01:53:12.175Z,15.55
2023-11-30T01:55:38.565Z,15.15
2023-11-30T01:58:05.475Z,16.05
2023-11-30T02:00:32.211Z,15.30
2023-11-30T02:02:58.891Z,14.65
2023-11-30T02:05:25.746Z,15.43
2023-11-30T02:07:52.007Z,16.17
2023-11-30T02:10:18.298Z,16.67
2023-11-30T02:12:44.582Z,16.42
2023-11-30T02:15:10.993Z,16.17
2023-11-30T02:17:37.354Z,14.90
2023-11-30T02:20:04.110Z,14.80
2023-11-30T02:22:30.381Z,16.20
2023-11-30T02:24:56.666Z,16.50
2023-11-30T02:27:23.037Z,16.95
2023-11-30T02:29:49.399Z,15.13
2023-11-30T02:32:15.703Z,15.07
2023-11-30T02:34:41.957Z,15.30
2023-11-30T02:37:08.265Z,15.15
2023-11-30T02:39:34.580Z,15.63
2023-11-30T02:42:00.880Z,15.57
2023-11-30T02:44:27.185Z,16.60
2023-11-30T02:46:53.463Z,15.95
2023-11-30T02:49:19.826Z,16.55
2023-11-30T02:51:46.131Z,15.63
2023-11-30T02:54:12.552Z,15.10
2023-11-30T02:56:40.376Z,15.00
2023-11-30T02:59:06.661Z,14.85
2023-11-30T03:01:33.069Z,15.18
2023-11-30T03:03:59.423Z,15.43
2023-11-30T03:06:25.764Z,15.57
2023-11-30T03:08:52.193Z,15.35
2023-11-30T03:11:18.556Z,16.15
2023-11-30T03:13:44.868Z,15.13
2023-11-30T03:16:11.150Z,15.60
2023-11-30T03:18:39.787Z,15.32
2023-11-30T03:21:14.976Z,16.27
2023-11-30T03:23:41.262Z,16.30
2023-11-30T03:26:07.591Z,16.27
2023-11-30T03:28:33.912Z,16.63
2023-11-30T03:31:00.224Z,16.30
2023-11-30T03:33:26.701Z,16.13
2023-11-30T03:35:53.105Z,16.33
2023-11-30T03:38:19.572Z,16.60
2023-11-30T03:40:45.983Z,15.70
2023-11-30T03:43:12.266Z,15.90
2023-11-30T03:45:38.581Z,16.05
2023-11-30T03:48:05.045Z,16.02
2023-11-30T03:50:31.383Z,15.85
2023-11-30T03:52:57.701Z,16.52
2023-11-30T03:55:24.250Z,15.73
2023-11-30T03:57:50.573Z,15.38
2023-11-30T04:00:17.622Z,16.15
2023-11-30T04:02:44.109Z,16.10
2023-11-30T04:05:17.053Z,16.60
2023-11-30T04:07:44.420Z,15.88
2023-11-30T04:10:11.434Z,17.63
2023-11-30T04:12:37.700Z,17.85
2023-11-30T04:15:05.161Z,17.00
2023-11-30T04:17:31.853Z,15.90
2023-11-30T04:19:58.394Z,16.85
2023-11-30T04:22:24.669Z,16.45
2023-11-30T04:24:50.990Z,16.70
2023-11-30T04:27:17.314Z,16.63
2023-11-30T04:29:43.600Z,17.30
2023-11-30T04:32:10.043Z,17.08
2023-11-30T04:34:36.319Z,17.58
2023-11-30T04:37:02.578Z,17.27
2023-11-30T04:39:29.087Z,16.95
2023-11-30T04:41:55.452Z,17.20
2023-11-30T04:44:23.964Z,18.13
2023-11-30T04:46:50.483Z,18.42
2023-11-30T04:49:16.766Z,18.50
2023-11-30T04:51:43.051Z,18.80
2023-11-30T04:54:09.350Z,18.85
2023-11-30T04:56:35.666Z,18.73
2023-11-30T04:59:01.935Z,19.38
2023-11-30T05:01:28.202Z,18.08
2023-11-30T05:03:54.786Z,18.15
2023-11-30T05:06:21.263Z,19.05
2023-11-30T05:08:47.580Z,19.15
2023-11-30T05:11:13.849Z,18.65
2023-11-30T05:13:40.144Z,16.58
2023-11-30T05:16:06.731Z,17.85
2023-11-30T05:18:33.178Z,17.00
2023-11-30T05:20:59.527Z,17.80
2023-11-30T05:23:25.826Z,19.10
2023-11-30T05:25:52.130Z,18.88
2023-11-30T05:28:18.484Z,18.77
2023-11-30T05:30:44.780Z,18.13
2023-11-30T05:33:12.382Z,17.25
2023-11-30T05:35:39.657Z,19.10
2023-11-30T05:38:05.949Z,17.65
2023-11-30T05:40:32.207Z,18.73
2023-11-30T05:42:58.493Z,16.70
2023-11-30T05:45:24.830Z,16.35
2023-11-30T05:47:51.205Z,17.42
2023-11-30T05:50:17.852Z,17.83
2023-11-30T05:52:44.123Z,17.55
2023-11-30T05:55:11.693Z,17.80
2023-11-30T05:57:38.282Z,19.00
2023-11-30T06:00:05.134Z,18.20
2023-11-30T06:02:32.993Z,18.73
2023-11-30T06:04:59.408Z,19.05
2023-11-30T06:07:25.823Z,17.85
2023-11-30T06:09:52.150Z,17.05
2023-11-30T06:12:18.515Z,17.80
2023-11-30T06:14:45.294Z,18.38
2023-11-30T06:17:12.367Z,16.67
2023-11-30T06:19:38.733Z,17.48
2023-11-30T06:22:04.995Z,17.80
2023-11-30T06:24:31.507Z,18.35
2023-11-30T06:26:59.674Z,18.42
2023-11-30T06:29:26.202Z,18.67
2023-11-30T06:31:52.492Z,18.58
2023-11-30T06:34:18.789Z,18.95
2023-11-30T06:36:45.191Z,19.55
2023-11-30T06:39:11.496Z,18.98
2023-11-30T06:41:37.889Z,19.30
2023-11-30T06:44:04.231Z,17.08
2023-11-30T06:46:30.750Z,17.63
2023-11-30T06:48:57.109Z,19.20
2023-11-30T06:51:23.427Z,19.08
2023-11-30T06:53:49.785Z,18.00
2023-11-30T06:56:16.421Z,18.17
2023-11-30T06:58:42.724Z,18.40
2023-11-30T07:01:10.856Z,18.75
2023-11-30T07:03:42.638Z,17.38
2023-11-30T07:06:10.371Z,17.08
2023-11-30T07:08:36.789Z,17.60
2023-11-30T07:11:04.872Z,17.23
2023-11-30T07:13:31.192Z,17.10
2023-11-30T07:15:57.587Z,17.38
2023-11-30T07:18:23.982Z,17.73
2023-11-30T07:20:50.411Z,18.33
2023-11-30T07:23:16.673Z,18.60
2023-11-30T07:25:43.147Z,17.95
2023-11-30T07:28:09.606Z,18.10
2023-11-30T07:30:36.061Z,17.90
2023-11-30T07:33:02.471Z,17.63
2023-11-30T07:35:28.800Z,18.83
2023-11-30T07:37:55.162Z,18.83
2023-11-30T07:40:22.417Z,18.17
2023-11-30T07:42:48.801Z,17.88
2023-11-30T07:45:15.241Z,16.92
2023-11-30T07:47:41.928Z,17.25
2023-11-30T07:50:08.351Z,19.75
2023-11-30T07:52:38.204Z,18.45
2023-11-30T07:55:06.253Z,19.27
2023-11-30T07:57:33.335Z,17.60
2023-11-30T07:59:59.839Z,16.88
2023-11-30T08:02:26.263Z,16.42
2023-11-30T08:04:52.568Z,17.10
2023-11-30T08:07:19.822Z,15.95
2023-11-30T08:09:46.197Z,16.33
2023-11-30T08:12:12.851Z,14.20
2023-11-30T08:14:39.246Z,18.20
2023-11-30T08:17:05.957Z,15.23
2023-11-30T08:19:33.830Z,16.13
2023-11-30T08:22:00.108Z,15.88
2023-11-30T08:24:26.515Z,15.70
2023-11-30T08:26:53.050Z,15.93
2023-11-30T08:29:19.388Z,21.65
2023-11-30T08:31:45.756Z,18.25
2023-11-30T08:34:12.414Z,16.73
2023-11-30T08:36:38.795Z,15.45
2023-11-30T08:39:05.319Z,15.43
2023-11-30T08:41:31.606Z,14.65
2023-11-30T08:43:57.854Z,14.93
2023-11-30T08:46:24.462Z,14.38
2023-11-30T08:48:51.084Z,17.60
2023-11-30T08:51:17.435Z,14.35
2023-11-30T08:53:43.778Z,15.45
2023-11-30T08:56:11.637Z,14.63
2023-11-30T08:58:38.005Z,14.55
2023-11-30T09:01:04.975Z,14.60
2023-11-30T09:03:31.393Z,13.32
2023-11-30T09:05:57.797Z,12.27
2023-11-30T09:08:24.064Z,12.75
2023-11-30T09:10:50.497Z,12.20
2023-11-30T09:13:16.861Z,11.10
2023-11-30T09:15:43.408Z,11.75
2023-11-30T09:18:12.192Z,11.85
2023-11-30T09:20:38.713Z,12.00
2023-11-30T09:23:07.488Z,10.82
2023-11-30T09:25:34.352Z,12.30
2023-11-30T09:28:00.695Z,11.75
2023-11-30T09:30:27.749Z,11.70
2023-11-30T09:32:54.603Z,11.93
2023-11-30T09:35:20.961Z,11.57
2023-11-30T09:37:49.354Z,12.82
2023-11-30T09:40:16.013Z,12.73
2023-11-30T09:42:42.669Z,12.20
2023-11-30T09:45:09.580Z,11.65
2023-11-30T09:47:35.980Z,12.38
2023-11-30T09:50:02.363Z,13.07
2023-11-30T09:52:29.629Z,12.45
2023-11-30T09:54:59.527Z,11.68
2023-11-30T09:57:25.876Z,11.57
2023-11-30T09:59:52.246Z,12.40
2023-11-30T10:02:23.148Z,12.60
2023-11-30T10:04:50.640Z,11.65
2023-11-30T10:07:18.779Z,11.38
2023-11-30T10:09:45.180Z,11.23
2023-11-30T10:12:11.648Z,11.00
2023-11-30T10:14:37.996Z,11.20
2023-11-30T10:17:04.546Z,11.63
2023-11-30T10:19:31.929Z,11.40
2023-11-30T10:21:58.571Z,10.52
2023-11-30T10:24:25.351Z,11.10
2023-11-30T10:26:52.351Z,11.43
2023-11-30T10:29:19.625Z,10.90
2023-11-30T10:31:47.859Z,9.20
2023-11-30T10:34:17.677Z,10.55
2023-11-30T10:36:44.395Z,11.52
2023-11-30T10:39:19.546Z,10.65
2023-11-30T10:41:55.313Z,11.25
2023-11-30T10:44:29.052Z,10.65
2023-11-30T10:46:59.449Z,15.80
2023-11-30T10:49:26.379Z,11.37
2023-11-30T10:51:53.199Z,11.18
2023-11-30T10:54:26.639Z,12.38
2023-11-30T10:56:53.614Z,10.80
2023-11-30T10:59:23.133Z,12.32
2023-11-30T11:01:52.895Z,11.68
2023-11-30T11:04:21.171Z,11.88
2023-11-30T11:06:48.995Z,11.18
2023-11-30T11:09:16.978Z,11.38
2023-11-30T11:11:44.375Z,11.05
2023-11-30T11:14:29.521Z,10.25
2023-11-30T11:17:03.100Z,10.35
2023-11-30T11:19:31.354Z,10.48
2023-11-30T11:21:57.644Z,9.50
2023-11-30T11:24:24.040Z,9.63
2023-11-30T11:26:55.516Z,9.82
2023-11-30T11:29:30.671Z,9.82
2023-11-30T11:32:01.663Z,9.77
2023-11-30T11:34:27.983Z,9.70
2023-11-30T11:36:54.390Z,10.10
2023-11-30T11:39:22.709Z,9.63
2023-11-30T11:41:49.687Z,9.93
2023-11-30T11:44:16.073Z,9.05
2023-11-30T11:46:44.119Z,8.32
2023-11-30T11:49:10.545Z,9.68
2023-11-30T11:51:44.682Z,9.02
2023-11-30T11:54:21.186Z,8.85
2023-11-30T11:56:48.801Z,8.52
2023-11-30T11:59:19.754Z,8.82
2023-11-30T12:01:46.165Z,8.77
2023-11-30T12:04:12.601Z,8.40
2023-11-30T12:06:39.049Z,7.80
2023-11-30T12:09:10.592Z,9.00
2023-11-30T12:11:38.535Z,8.95
2023-11-30T12:14:06.422Z,8.43
2023-11-30T12:16:36.419Z,9.52
2023-11-30T12:19:03.469Z,10.10
2023-11-30T12:21:29.876Z,10.30
2023-11-30T12:23:56.540Z,9.85
2023-11-30T12:26:22.922Z,9.50
2023-11-30T12:28:49.300Z,9.00
2023-11-30T12:31:16.143Z,9.07
2023-11-30T12:33:42.628Z,8.43
2023-11-30T12:36:09.262Z,9.32
2023-11-30T12:38:35.630Z,9.32
2023-11-30T12:41:02.020Z,9.00
2023-11-30T12:43:28.487Z,9.23
2023-11-30T12:45:54.844Z,8.80
2023-11-30T12:48:21.298Z,8.10
2023-11-30T12:50:50.091Z,9.10
2023-11-30T12:53:18.512Z,8.35
2023-11-30T12:55:47.811Z,9.00
2023-11-30T12:58:14.163Z,8.95
2023-11-30T13:00:40.492Z,9.82
2023-11-30T13:03:06.894Z,10.00
2023-11-30T13:05:33.337Z,9.70
2023-11-30T13:07:59.717Z,9.65
2023-11-30T13:10:27.478Z,10.90
2023-11-30T13:12:54.018Z,10.48
2023-11-30T13:15:20.393Z,10.90
2023-11-30T13:17:47.187Z,10.63
2023-11-30T13:20:14.500Z,10.88
2023-11-30T13:22:42.229Z,10.93
2023-11-30T13:25:11.093Z,11.55
2023-11-30T13:27:37.533Z,10.75
2023-11-30T13:30:05.346Z,11.52
2023-11-30T13:32:34.760Z,11.05
2023-11-30T13:35:01.213Z,10.80
2023-11-30T13:37:27.580Z,10.45
2023-11-30T13:39:53.988Z,11.05
2023-11-30T13:42:20.855Z,10.73
2023-11-30T13:44:47.229Z,10.27
2023-11-30T13:47:13.559Z,10.88
2023-11-30T13:49:39.920Z,11.13
2023-11-30T13:52:08.344Z,11.25
2023-11-30T13:54:35.564Z,11.25
2023-11-30T13:57:01.951Z,11.68
2023-11-30T13:59:28.477Z,10.75
2023-11-30T14:01:56.261Z,10.70
2023-11-30T14:04:22.639Z,11.90
2023-11-30T14:06:51.108Z,12.13
2023-11-30T14:09:26.878Z,11.38
2023-11-30T14:11:54.493Z,11.30
2023-11-30T14:14:20.786Z,12.32
2023-11-30T14:16:47.117Z,12.00
2023-11-30T14:19:13.675Z,11.52
2023-11-30T14:21:40.074Z,11.48
2023-11-30T14:24:06.771Z,12.38
2023-11-30T14:26:33.293Z,12.07
2023-11-30T14:28:59.725Z,12.00
2023-11-30T14:31:26.692Z,12.27
2023-11-30T14:33:53.357Z,11.32
2023-11-30T14:36:19.795Z,11.38
2023-11-30T14:38:46.390Z,11.85
2023-11-30T14:41:12.742Z,11.73
2023-11-30T14:43:39.926Z,10.70
2023-11-30T14:46:06.478Z,12.48
2023-11-30T14:48:32.822Z,11.55
2023-11-30T14:50:59.230Z,11.48
2023-11-30T14:53:25.564Z,12.10
2023-11-30T14:55:51.896Z,12.02
2023-11-30T14:58:18.321Z,12.10
2023-11-30T15:00:44.717Z,11.32
2023-11-30T15:03:12.678Z,11.23
2023-11-30T15:05:39.733Z,11.60
2023-11-30T15:08:06.329Z,11.63
2023-11-30T15:10:32.947Z,12.00
2023-11-30T15:12:59.854Z,11.35
2023-11-30T15:15:27.465Z,11.35
2023-11-30T15:17:54.051Z,11.98
2023-11-30T15:20:22.044Z,12.50
2023-11-30T15:22:50.438Z,12.07
2023-11-30T15:25:20.288Z,11.27
2023-11-30T15:27:47.309Z,12.20
2023-11-30T15:30:14.110Z,11.70
2023-11-30T15:32:40.620Z,11.65
2023-11-30T15:35:07.096Z,12.25
2023-11-30T15:37:36.157Z,11.40
2023-11-30T15:40:06.517Z,14.93
2023-11-30T15:42:32.942Z,15.25
2023-11-30T15:44:59.348Z,15.10
2023-11-30T15:47:26.626Z,16.08
2023-11-30T15:49:52.942Z,16.77
2023-11-30T15:52:19.226Z,14.65
2023-11-30T15:54:45.592Z,16.08
2023-11-30T15:57:11.936Z,15.77
2023-11-30T15:59:38.229Z,16.80
2023-11-30T16:02:04.754Z,14.50
2023-11-30T16:04:31.979Z,17.00
2023-11-30T16:06:59.081Z,16.48
2023-11-30T16:09:25.908Z,16.70
2023-11-30T16:11:52.206Z,17.15
2023-11-30T16:14:18.536Z,16.05
2023-11-30T16:16:45.573Z,17.55
2023-11-30T16:19:12.028Z,18.33
2023-11-30T16:21:38.833Z,18.48
2023-11-30T16:24:05.625Z,18.88
2023-11-30T16:26:34.149Z,21.42
2023-11-30T16:29:00.459Z,20.55
2023-11-30T16:31:26.868Z,18.90
2023-11-30T16:33:53.255Z,20.08
2023-11-30T16:36:19.632Z,18.70
2023-11-30T16:38:46.327Z,19.13
2023-11-30T16:41:15.690Z,18.13
2023-11-30T16:43:42.142Z,18.48
2023-11-30T16:46:08.862Z,20.02
2023-11-30T16:48:35.852Z,19.20
2023-11-30T16:51:07.217Z,19.48
2023-11-30T16:56:00.327Z,16.60
2023-11-30T16:58:30.341Z,18.02
2023-11-30T17:00:57.249Z,18.42
2023-11-30T17:03:26.508Z,17.63
2023-11-30T17:05:53.575Z,17.50
2023-11-30T17:08:19.869Z,18.45
2023-11-30T17:10:46.850Z,19.05
2023-11-30T17:13:13.619Z,20.20
2023-11-30T17:15:40.021Z,18.92
2023-11-30T17:18:06.399Z,20.63
2023-11-30T17:20:32.738Z,19.35
2023-11-30T17:23:04.106Z,17.92
2023-11-30T17:25:30.513Z,20.38
2023-11-30T17:27:59.562Z,19.70
2023-11-30T17:30:26.015Z,20.23
2023-11-30T17:32:52.556Z,20.52
2023-11-30T17:35:19.311Z,24.70
2023-11-30T17:37:45.819Z,25.23
2023-11-30T17:40:12.693Z,23.10
2023-11-30T17:42:39.326Z,25.83
2023-11-30T17:45:06.189Z,21.65
2023-11-30T17:47:32.901Z,22.65
2023-11-30T17:50:00.676Z,21.85
2023-11-30T17:52:27.581Z,21.85
2023-11-30T17:54:53.950Z,20.90
2023-11-30T17:57:20.322Z,19.20
2023-11-30T17:59:46.693Z,19.95
2023-11-30T18:02:13.119Z,20.90
2023-11-30T18:04:39.435Z,19.70
2023-11-30T18:07:08.582Z,20.00
2023-11-30T18:09:35.025Z,19.92
2023-11-30T18:12:01.603Z,19.48
2023-11-30T18:14:32.541Z,18.83
2023-11-30T18:17:02.589Z,19.17
2023-11-30T18:19:29.428Z,19.92
2023-11-30T18:21:56.123Z,19.30
2023-11-30T18:24:40.646Z,20.02
2023-11-30T18:27:07.444Z,20.45
2023-11-30T18:29:33.921Z,24.48
2023-11-30T18:32:00.907Z,25.95
2023-11-30T18:34:27.313Z,26.08
2023-11-30T18:36:53.709Z,24.70
2023-11-30T18:39:20.814Z,23.75
2023-11-30T18:41:47.175Z,24.00
2023-11-30T18:44:14.048Z,21.60
2023-11-30T18:46:40.643Z,24.88
2023-11-30T18:49:07.136Z,23.65
2023-11-30T18:51:35.056Z,23.58
2023-11-30T18:54:01.629Z,24.20
2023-11-30T18:56:29.351Z,25.38
2023-11-30T18:58:56.404Z,26.45
2023-11-30T19:01:23.047Z,26.38
2023-11-30T19:03:49.694Z,27.40
2023-11-30T19:06:18.956Z,27.67
2023-11-30T19:08:45.916Z,26.23
2023-11-30T19:11:12.500Z,27.48
2023-11-30T19:13:39.463Z,24.30
2023-11-30T19:16:06.187Z,27.48
2023-11-30T19:18:33.082Z,26.08
2023-11-30T19:21:01.046Z,27.08
2023-11-30T19:23:27.457Z,27.20
2023-11-30T19:25:54.129Z,25.38
2023-11-30T19:28:20.520Z,26.45
2023-11-30T19:30:46.933Z,26.10
2023-11-30T19:33:13.335Z,26.83
2023-11-30T19:35:39.947Z,24.88
2023-11-30T19:38:06.303Z,25.15
2023-11-30T19:40:32.659Z,24.80
2023-11-30T19:42:59.074Z,25.45
2023-11-30T19:45:25.426Z,25.60
2023-11-30T19:47:52.025Z,23.65
2023-11-30T19:50:18.441Z,25.23
2023-11-30T19:52:46.413Z,23.23
2023-11-30T19:55:12.710Z,25.17
2023-11-30T19:57:39.052Z,25.17
2023-11-30T20:00:06.428Z,25.15
2023-11-30T20:02:32.815Z,27.67
2023-11-30T20:04:59.269Z,26.65
2023-11-30T20:07:25.630Z,27.73
2023-11-30T20:09:51.992Z,27.90
2023-11-30T20:12:18.304Z,27.67
2023-11-30T20:14:44.575Z,29.13
2023-11-30T20:17:12.075Z,28.25
2023-11-30T20:19:38.547Z,27.73
2023-11-30T20:22:04.890Z,28.38
2023-11-30T20:24:35.070Z,28.08
2023-11-30T20:27:07.993Z,26.90
2023-11-30T20:29:34.314Z,26.58
2023-11-30T20:32:00.648Z,28.08
2023-11-30T20:34:26.973Z,27.42
2023-11-30T20:36:53.356Z,28.80
2023-11-30T20:39:20.372Z,28.55
2023-11-30T20:41:46.669Z,28.25
2023-11-30T20:44:13.411Z,27.58
2023-11-30T20:46:40.129Z,28.48
2023-11-30T20:49:06.508Z,28.13
2023-11-30T20:51:32.889Z,25.45
2023-11-30T20:53:59.378Z,27.05
2023-11-30T20:56:26.430Z,27.70
2023-11-30T20:58:52.773Z,25.70
2023-11-30T21:01:19.702Z,28.08
2023-11-30T21:03:46.327Z,25.77
2023-11-30T21:06:13.678Z,26.27
2023-11-30T21:08:40.614Z,27.25
2023-11-30T21:11:07.327Z,26.55
2023-11-30T21:13:33.997Z,25.05
2023-11-30T21:16:00.625Z,26.17
2023-11-30T21:18:27.325Z,25.33
2023-11-30T21:20:53.873Z,26.83
2023-11-30T21:23:20.157Z,28.77
2023-11-30T21:25:46.725Z,30.50
2023-11-30T21:28:14.366Z,32.17
2023-11-30T21:30:41.290Z,32.88
2023-11-30T21:33:08.000Z,33.17
2023-11-30T21:35:35.107Z,35.38
2023-11-30T21:38:01.830Z,37.50
2023-11-30T21:40:29.513Z,33.97
2023-11-30T21:42:56.702Z,37.22
2023-11-30T21:45:23.226Z,37.45
2023-11-30T21:47:49.635Z,37.78
2023-11-30T21:50:18.981Z,37.88
2023-11-30T21:52:47.895Z,37.45
2023-11-30T21:55:15.074Z,41.00
2023-11-30T21:57:45.744Z,42.35
2023-11-30T22:00:12.772Z,43.88
2023-11-30T22:02:39.690Z,41.72
2023-11-30T22:05:06.443Z,41.85
2023-11-30T22:07:33.841Z,45.38
2023-11-30T22:10:00.407Z,43.30
2023-11-30T22:12:26.800Z,45.78
2023-11-30T22:14:53.166Z,47.88
2023-11-30T22:17:19.634Z,47.55
2023-11-30T22:19:46.015Z,48.50
2023-11-30T22:22:12.358Z,45.67
2023-11-30T22:24:39.071Z,45.70
2023-11-30T22:27:05.462Z,43.30
2023-11-30T22:29:31.848Z,43.47
2023-11-30T22:31:58.141Z,42.25
2023-11-30T22:34:26.240Z,43.38
2023-11-30T22:36:52.659Z,43.10
2023-11-30T22:39:19.046Z,43.13
2023-11-30T22:41:45.447Z,40.85
2023-11-30T22:44:11.826Z,42.85
2023-11-30T22:46:38.140Z,41.92
2023-11-30T22:49:04.599Z,42.38
2023-11-30T22:51:31.084Z,40.97
2023-11-30T22:53:57.485Z,40.30
2023-11-30T22:56:24.800Z,38.90
2023-11-30T22:58:51.202Z,35.92
2023-11-30T23:01:17.882Z,35.78
2023-11-30T23:03:45.351Z,35.35
2023-11-30T23:06:15.098Z,34.13
2023-11-30T23:08:41.430Z,34.10
2023-11-30T23:11:08.154Z,34.90
2023-11-30T23:13:34.706Z,35.47
2023-11-30T23:16:02.085Z,35.33
2023-11-30T23:18:28.778Z,34.22
2023-11-30T23:20:55.137Z,36.35
2023-11-30T23:23:22.509Z,35.00
2023-11-30T23:25:49.473Z,33.88
2023-11-30T23:28:15.866Z,35.03
2023-11-30T23:30:42.289Z,33.55
2023-11-30T23:33:09.641Z,34.70
2023-11-30T23:35:36.437Z,33.53
2023-11-30T23:38:02.789Z,33.13
2023-11-30T23:40:29.448Z,32.10
2023-11-30T23:42:55.781Z,32.63
2023-11-30T23:45:22.176Z,31.27
2023-11-30T23:47:48.497Z,35.25
2023-11-30T23:50:14.852Z,33.28
2023-11-30T23:52:42.160Z,31.73
2023-11-30T23:55:08.730Z,32.67
2023-11-30T23:57:35.450Z,36.45
